首页
METAR-TAF:

METAR-TAF

机场 :

Revelstoke, 不列颠哥伦比亚, 加拿大

纬度: 50-58N, 经度: 118-11W, 海拔: 443米

当前天气观测

该预报发布于1小时和4分钟前的21:00 UTC
风速13节,风向南转南东
温度 22°C
湿度 31%
气压 1013 hPa
能見度: 14.5公里
天空无云

METAR: CYRV 262100Z AUTO 16013KT 9SM CLR 22/04 A2992 RMK SLP133 DENSITY ALT 2600FT

时间: 15:04 (22:04 UTC)


TAF: 丢失

超过4000个机场的气象观测和天气预报(METAR&TAF报告)。

可查询的气象台以黄色和红色小点在地图上表示。

将鼠标移到小点上方,可查看气象台名称。

然后点击查看天气观测和预报。

如需切换地图:点击带黑十字的绿色按钮放大地图;点击带横线的绿色按钮缩小地图;或者点击绿色箭头查看邻近地区的地图。


METAR-TAF: